»·PEaware :: N71TB KSBP-KSAC

N71TB :: KSBP-KSAC

FLIGHT INFORMATION

Flight Status: Arrived
Operator: Privately registered:
United States
More flights under this callsign
Pilot: Ryan C. (15122)
Aircraft: SOCATA TBM-900
(TBM9)
More flights by this aircraft type
Origin: KSBP San Luis Co Regl
United States
Destination: KSAC Sacramento Executive
United States
More flights between these airports :: More routes between these airports
Route: CREPE3 PRB ROM PXN MOD LIN SAC
File this flight plan on PilotEdge
Remarks:
Altitude:
(Current/Filed)
24,000ft
Speed:
(Current/Filed)
300kts
Departed: 02-Dec-19 09:20 PM
Arrived: 02-Dec-19 10:11 PM
Distance/Time
Traveled:
201nm/0:51
Distance/Time
To Go:
Arrived

Flight Plot

Page will automatically refresh every two minutes.

Flight plan parsing failed; only flown route is shown


Map Options




Map Legend


Flown Route
Filed Route
Departure Airport
Arrival Airport
Navaid (VOR, NDB)
Fix

Horizontal Profiles

Position Reports

Time Latitude Longitude Heading Altitude Ground
Speed
02-Dec-19 21:02 35.236655 -120.636971 79 186ft 0kts
02-Dec-19 21:03 35.236655 -120.636971 79 186ft 0kts
02-Dec-19 21:04 35.236655 -120.636971 79 186ft 0kts
02-Dec-19 21:05 35.236655 -120.636971 79 186ft 0kts
02-Dec-19 21:06 35.236655 -120.636971 79 186ft 0kts
02-Dec-19 21:07 35.236655 -120.636971 79 186ft 0kts
02-Dec-19 21:08 35.236655 -120.636971 79 186ft 0kts
02-Dec-19 21:09 35.236655 -120.636971 79 186ft 0kts
02-Dec-19 21:10 35.236655 -120.636971 79 186ft 0kts
02-Dec-19 21:11 35.236655 -120.636971 79 186ft 0kts
02-Dec-19 21:12 35.236655 -120.636971 79 186ft 0kts
02-Dec-19 21:13 35.236655 -120.636971 79 186ft 0kts
02-Dec-19 21:14 35.236655 -120.636971 79 186ft 0kts
02-Dec-19 21:15 35.236655 -120.636971 79 186ft 0kts
02-Dec-19 21:16 35.236445 -120.636529 138 186ft 6kts
02-Dec-19 21:17 35.234750 -120.634560 124 186ft 14kts
02-Dec-19 21:18 35.232888 -120.633144 286 186ft 12kts
02-Dec-19 21:19 35.245159 -120.661201 297 1888ft 119kts
02-Dec-19 21:20 35.263222 -120.694862 305 4550ft 121kts
02-Dec-19 21:21 35.283848 -120.729115 302 6810ft 134kts
02-Dec-19 21:22 35.306417 -120.767082 299 8879ft 143kts
02-Dec-19 21:23 35.330562 -120.807793 298 10690ft 154kts
02-Dec-19 21:24 35.357172 -120.852182 307 12312ft 171kts
02-Dec-19 21:25 35.402223 -120.835468 36 13808ft 192kts
02-Dec-19 21:26 35.449195 -120.799163 35 15154ft 204kts
02-Dec-19 21:27 35.499794 -120.760251 35 17131ft 224kts
02-Dec-19 21:28 35.554230 -120.718348 34 19692ft 241kts
02-Dec-19 21:29 35.613482 -120.672619 32 22110ft 261kts
02-Dec-19 21:30 35.678369 -120.627798 354 24143ft 273kts
02-Dec-19 21:31 35.764665 -120.634663 345 24201ft 347kts
02-Dec-19 21:32 35.866064 -120.642726 346 24184ft 374kts
02-Dec-19 21:33 35.970898 -120.651156 346 24176ft 377kts
02-Dec-19 21:34 36.076042 -120.659679 346 24179ft 378kts
02-Dec-19 21:35 36.178292 -120.672249 339 24165ft 370kts
02-Dec-19 21:36 36.275826 -120.691558 339 24168ft 370kts
02-Dec-19 21:37 36.363461 -120.708842 339 24176ft 370kts
02-Dec-19 21:38 36.471187 -120.730164 339 24206ft 370kts
02-Dec-19 21:39 36.573284 -120.750395 339 24209ft 370kts
02-Dec-19 21:40 36.675305 -120.770680 339 24208ft 371kts
02-Dec-19 21:41 36.777534 -120.790751 340 24161ft 373kts
02-Dec-19 21:42 36.881694 -120.811043 341 23215ft 381kts
02-Dec-19 21:43 36.986790 -120.831605 342 22279ft 381kts
02-Dec-19 21:44 37.091063 -120.852047 345 21336ft 375kts
02-Dec-19 21:45 37.192832 -120.871980 346 20320ft 370kts
02-Dec-19 21:46 37.288615 -120.890834 347 18987ft 369kts
02-Dec-19 21:47 37.389244 -120.910696 348 17468ft 364kts
02-Dec-19 21:48 37.488735 -120.930368 349 15951ft 356kts
02-Dec-19 21:49 37.585672 -120.949610 350 14440ft 348kts
02-Dec-19 21:50 37.679810 -120.963292 355 12928ft 331kts
02-Dec-19 21:51 37.769141 -120.972357 355 11428ft 315kts
02-Dec-19 21:52 37.855035 -120.981182 354 9992ft 302kts
02-Dec-19 21:53 37.936698 -120.989624 354 9974ft 289kts
02-Dec-19 21:54 38.016780 -120.997895 355 9983ft 287kts
02-Dec-19 21:55 38.089670 -121.026244 308 9956ft 281kts
02-Dec-19 21:56 38.137784 -121.103926 293 8649ft 272kts
02-Dec-19 21:57 38.166812 -121.179194 293 7368ft 225kts
02-Dec-19 21:58 38.192540 -121.248533 293 6039ft 213kts
02-Dec-19 21:59 38.216932 -121.316716 293 4652ft 208kts
02-Dec-19 22:00 38.239433 -121.382795 293 3149ft 199kts
02-Dec-19 22:01 38.259789 -121.444566 293 3090ft 187kts
02-Dec-19 22:02 38.279511 -121.506863 293 3091ft 194kts
02-Dec-19 22:03 38.299002 -121.572824 293 3093ft 201kts
02-Dec-19 22:04 38.342451 -121.597142 3 2024ft 182kts
02-Dec-19 22:05 38.387330 -121.594773 3 1489ft 139kts
02-Dec-19 22:06 38.419944 -121.571572 32 1501ft 134kts
02-Dec-19 22:07 38.451697 -121.545197 29 1291ft 128kts
02-Dec-19 22:08 38.476093 -121.524934 29 731ft 91kts
02-Dec-19 22:09 38.497427 -121.507071 31 272ft 85kts
02-Dec-19 22:10 38.511951 -121.495241 35 23ft 18kts
02-Dec-19 22:11 38.513366 -121.494888 270 23ft 9kts
02-Dec-19 22:12 38.514271 -121.497567 289 23ft 9kts
02-Dec-19 22:13 38.514841 -121.499158 229 23ft 7kts
02-Dec-19 22:14 38.514797 -121.499220 226 23ft 0kts
02-Dec-19 22:15 38.514797 -121.499220 226 23ft 0kts

Navigation Log

Ident Type
Flight plan parsing failed, navigation log unavailable